sensor_id;sensor_type;location;lat;lon;timestamp;P1;durP1;ratioP1;P2;durP2;ratioP2
78887;SDS011;68276;49.326;8.690;2023-07-13T00:02:25;4.23;;;1.07;;
78887;SDS011;68276;49.326;8.690;2023-07-13T00:04:51;4.63;;;1.10;;
78887;SDS011;68276;49.326;8.690;2023-07-13T00:09:45;3.33;;;1.00;;
78887;SDS011;68276;49.326;8.690;2023-07-13T00:12:31;3.88;;;1.00;;
78887;SDS011;68276;49.326;8.690;2023-07-13T00:14:58;4.20;;;1.10;;
78887;SDS011;68276;49.326;8.690;2023-07-13T00:17:25;5.40;;;1.20;;
78887;SDS011;68276;49.326;8.690;2023-07-13T00:19:52;4.97;;;1.20;;
78887;SDS011;68276;49.326;8.690;2023-07-13T00:24:44;5.20;;;0.98;;
78887;SDS011;68276;49.326;8.690;2023-07-13T00:29:36;3.70;;;1.02;;
78887;SDS011;68276;49.326;8.690;2023-07-13T00:34:31;3.80;;;1.15;;
78887;SDS011;68276;49.326;8.690;2023-07-13T00:39:22;2.47;;;0.93;;
78887;SDS011;68276;49.326;8.690;2023-07-13T00:44:14;5.78;;;1.30;;
78887;SDS011;68276;49.326;8.690;2023-07-13T00:46:40;3.70;;;1.10;;
78887;SDS011;68276;49.326;8.690;2023-07-13T00:51:36;4.38;;;1.20;;
78887;SDS011;68276;49.326;8.690;2023-07-13T00:54:09;3.25;;;1.00;;
78887;SDS011;68276;49.326;8.690;2023-07-13T00:56:38;5.80;;;1.00;;
78887;SDS011;68276;49.326;8.690;2023-07-13T00:59:06;3.55;;;0.73;;
78887;SDS011;68276;49.326;8.690;2023-07-13T01:01:35;7.03;;;1.25;;
78887;SDS011;68276;49.326;8.690;2023-07-13T01:04:02;3.70;;;0.82;;
78887;SDS011;68276;49.326;8.690;2023-07-13T01:08:53;3.42;;;1.08;;
78887;SDS011;68276;49.326;8.690;2023-07-13T01:11:21;5.25;;;1.10;;
78887;SDS011;68276;49.326;8.690;2023-07-13T01:16:19;3.10;;;1.08;;
78887;SDS011;68276;49.326;8.690;2023-07-13T01:18:51;4.90;;;1.02;;
78887;SDS011;68276;49.326;8.690;2023-07-13T01:21:17;2.45;;;0.93;;
78887;SDS011;68276;49.326;8.690;2023-07-13T01:23:44;5.28;;;1.00;;
78887;SDS011;68276;49.326;8.690;2023-07-13T01:26:09;4.68;;;1.52;;
78887;SDS011;68276;49.326;8.690;2023-07-13T01:28:35;3.83;;;1.10;;
78887;SDS011;68276;49.326;8.690;2023-07-13T01:31:02;5.07;;;1.10;;
78887;SDS011;68276;49.326;8.690;2023-07-13T01:33:28;2.33;;;1.00;;
78887;SDS011;68276;49.326;8.690;2023-07-13T01:35:53;3.38;;;1.00;;
78887;SDS011;68276;49.326;8.690;2023-07-13T01:38:23;5.28;;;1.15;;
78887;SDS011;68276;49.326;8.690;2023-07-13T01:40:50;5.45;;;1.27;;
78887;SDS011;68276;49.326;8.690;2023-07-13T01:43:16;3.67;;;1.00;;
78887;SDS011;68276;49.326;8.690;2023-07-13T01:48:09;6.30;;;1.25;;
78887;SDS011;68276;49.326;8.690;2023-07-13T01:50:34;4.78;;;1.17;;
78887;SDS011;68276;49.326;8.690;2023-07-13T01:53:00;6.90;;;1.15;;
78887;SDS011;68276;49.326;8.690;2023-07-13T01:55:27;3.95;;;1.20;;
78887;SDS011;68276;49.326;8.690;2023-07-13T01:57:53;4.18;;;1.38;;
78887;SDS011;68276;49.326;8.690;2023-07-13T02:00:18;4.90;;;1.02;;
78887;SDS011;68276;49.326;8.690;2023-07-13T02:05:09;5.03;;;1.00;;
78887;SDS011;68276;49.326;8.690;2023-07-13T02:07:35;2.83;;;1.00;;
78887;SDS011;68276;49.326;8.690;2023-07-13T02:10:01;9.07;;;1.20;;
78887;SDS011;68276;49.326;8.690;2023-07-13T02:12:27;4.10;;;1.10;;
78887;SDS011;68276;49.326;8.690;2023-07-13T02:14:52;5.88;;;1.10;;
78887;SDS011;68276;49.326;8.690;2023-07-13T02:17:18;4.30;;;1.10;;
78887;SDS011;68276;49.326;8.690;2023-07-13T02:19:43;2.97;;;1.00;;
78887;SDS011;68276;49.326;8.690;2023-07-13T02:22:08;6.78;;;1.10;;
78887;SDS011;68276;49.326;8.690;2023-07-13T02:24:34;5.07;;;1.40;;
78887;SDS011;68276;49.326;8.690;2023-07-13T02:26:59;5.33;;;1.07;;
78887;SDS011;68276;49.326;8.690;2023-07-13T02:29:25;7.03;;;1.20;;
78887;SDS011;68276;49.326;8.690;2023-07-13T02:31:50;3.72;;;1.30;;
78887;SDS011;68276;49.326;8.690;2023-07-13T02:34:15;5.03;;;1.10;;
78887;SDS011;68276;49.326;8.690;2023-07-13T02:36:41;3.00;;;0.97;;
78887;SDS011;68276;49.326;8.690;2023-07-13T02:39:06;4.43;;;1.40;;
78887;SDS011;68276;49.326;8.690;2023-07-13T02:41:32;5.85;;;1.30;;
78887;SDS011;68276;49.326;8.690;2023-07-13T02:43:58;4.80;;;1.30;;
78887;SDS011;68276;49.326;8.690;2023-07-13T02:46:35;5.20;;;1.17;;
78887;SDS011;68276;49.326;8.690;2023-07-13T02:49:02;3.38;;;1.10;;
78887;SDS011;68276;49.326;8.690;2023-07-13T02:51:29;3.30;;;0.95;;
78887;SDS011;68276;49.326;8.690;2023-07-13T02:53:54;5.13;;;1.20;;
78887;SDS011;68276;49.326;8.690;2023-07-13T02:56:24;3.77;;;1.07;;
78887;SDS011;68276;49.326;8.690;2023-07-13T02:58:50;3.15;;;1.20;;
78887;SDS011;68276;49.326;8.690;2023-07-13T03:01:16;7.32;;;1.50;;
78887;SDS011;68276;49.326;8.690;2023-07-13T03:03:43;4.75;;;1.25;;
78887;SDS011;68276;49.326;8.690;2023-07-13T03:06:08;2.97;;;1.00;;
78887;SDS011;68276;49.326;8.690;2023-07-13T03:08:33;3.60;;;1.03;;
78887;SDS011;68276;49.326;8.690;2023-07-13T03:11:00;6.68;;;1.35;;
78887;SDS011;68276;49.326;8.690;2023-07-13T03:13:30;3.15;;;1.10;;
78887;SDS011;68276;49.326;8.690;2023-07-13T03:15:55;5.47;;;1.10;;
78887;SDS011;68276;49.326;8.690;2023-07-13T03:18:21;3.65;;;1.10;;
78887;SDS011;68276;49.326;8.690;2023-07-13T03:20:49;4.05;;;1.40;;
78887;SDS011;68276;49.326;8.690;2023-07-13T03:23:16;6.82;;;1.50;;
78887;SDS011;68276;49.326;8.690;2023-07-13T03:25:41;4.05;;;1.10;;
78887;SDS011;68276;49.326;8.690;2023-07-13T03:28:07;6.85;;;1.45;;
78887;SDS011;68276;49.326;8.690;2023-07-13T03:30:32;5.17;;;1.20;;
78887;SDS011;68276;49.326;8.690;2023-07-13T03:32:57;5.67;;;1.13;;
78887;SDS011;68276;49.326;8.690;2023-07-13T03:35:23;3.47;;;1.10;;
78887;SDS011;68276;49.326;8.690;2023-07-13T03:40:13;3.97;;;1.30;;
78887;SDS011;68276;49.326;8.690;2023-07-13T03:45:04;4.27;;;1.30;;
78887;SDS011;68276;49.326;8.690;2023-07-13T03:47:30;5.72;;;1.63;;
78887;SDS011;68276;49.326;8.690;2023-07-13T03:49:55;5.10;;;1.23;;
78887;SDS011;68276;49.326;8.690;2023-07-13T03:52:21;3.90;;;1.23;;
78887;SDS011;68276;49.326;8.690;2023-07-13T03:54:46;3.83;;;1.47;;
78887;SDS011;68276;49.326;8.690;2023-07-13T03:57:12;5.18;;;1.30;;
78887;SDS011;68276;49.326;8.690;2023-07-13T03:59:37;4.45;;;1.40;;
78887;SDS011;68276;49.326;8.690;2023-07-13T04:02:02;3.73;;;1.10;;
78887;SDS011;68276;49.326;8.690;2023-07-13T04:04:29;5.68;;;1.33;;
78887;SDS011;68276;49.326;8.690;2023-07-13T04:06:55;5.78;;;1.42;;
78887;SDS011;68276;49.326;8.690;2023-07-13T04:09:23;5.50;;;1.40;;
78887;SDS011;68276;49.326;8.690;2023-07-13T04:11:49;4.90;;;1.40;;
78887;SDS011;68276;49.326;8.690;2023-07-13T04:14:15;6.95;;;1.50;;
78887;SDS011;68276;49.326;8.690;2023-07-13T04:16:40;8.15;;;1.77;;
78887;SDS011;68276;49.326;8.690;2023-07-13T04:19:06;4.45;;;1.30;;
78887;SDS011;68276;49.326;8.690;2023-07-13T04:21:31;4.67;;;1.40;;
78887;SDS011;68276;49.326;8.690;2023-07-13T04:23:57;6.22;;;1.40;;
78887;SDS011;68276;49.326;8.690;2023-07-13T04:26:23;6.13;;;1.40;;
78887;SDS011;68276;49.326;8.690;2023-07-13T04:28:49;4.53;;;1.43;;
78887;SDS011;68276;49.326;8.690;2023-07-13T04:31:15;4.25;;;1.30;;
78887;SDS011;68276;49.326;8.690;2023-07-13T04:33:41;6.57;;;1.70;;
78887;SDS011;68276;49.326;8.690;2023-07-13T04:36:08;4.38;;;1.33;;
78887;SDS011;68276;49.326;8.690;2023-07-13T04:38:34;7.65;;;1.80;;
78887;SDS011;68276;49.326;8.690;2023-07-13T04:41:01;7.65;;;1.73;;
78887;SDS011;68276;49.326;8.690;2023-07-13T04:43:29;6.25;;;2.42;;
78887;SDS011;68276;49.326;8.690;2023-07-13T04:45:56;7.50;;;1.80;;
78887;SDS011;68276;49.326;8.690;2023-07-13T04:48:22;6.68;;;1.65;;
78887;SDS011;68276;49.326;8.690;2023-07-13T04:50:53;4.38;;;1.48;;
78887;SDS011;68276;49.326;8.690;2023-07-13T04:53:20;6.55;;;1.50;;
78887;SDS011;68276;49.326;8.690;2023-07-13T04:55:47;5.63;;;1.40;;
78887;SDS011;68276;49.326;8.690;2023-07-13T04:58:12;3.47;;;1.30;;
78887;SDS011;68276;49.326;8.690;2023-07-13T05:00:38;5.63;;;1.42;;
78887;SDS011;68276;49.326;8.690;2023-07-13T05:03:03;5.60;;;1.65;;
78887;SDS011;68276;49.326;8.690;2023-07-13T05:05:32;4.07;;;1.40;;
78887;SDS011;68276;49.326;8.690;2023-07-13T05:07:57;5.47;;;1.48;;
78887;SDS011;68276;49.326;8.690;2023-07-13T05:10:23;5.23;;;1.53;;
78887;SDS011;68276;49.326;8.690;2023-07-13T05:12:49;3.83;;;1.58;;
78887;SDS011;68276;49.326;8.690;2023-07-13T05:15:15;6.88;;;1.50;;
78887;SDS011;68276;49.326;8.690;2023-07-13T05:17:40;4.82;;;1.50;;
78887;SDS011;68276;49.326;8.690;2023-07-13T05:20:07;6.35;;;1.65;;
78887;SDS011;68276;49.326;8.690;2023-07-13T05:22:33;6.75;;;1.75;;
78887;SDS011;68276;49.326;8.690;2023-07-13T05:25:00;5.68;;;1.30;;
78887;SDS011;68276;49.326;8.690;2023-07-13T05:27:26;6.05;;;1.55;;
78887;SDS011;68276;49.326;8.690;2023-07-13T05:29:51;8.20;;;2.70;;
78887;SDS011;68276;49.326;8.690;2023-07-13T05:32:17;6.10;;;1.70;;
78887;SDS011;68276;49.326;8.690;2023-07-13T05:34:43;9.95;;;1.90;;
78887;SDS011;68276;49.326;8.690;2023-07-13T05:37:09;10.98;;;1.70;;
78887;SDS011;68276;49.326;8.690;2023-07-13T05:39:35;5.60;;;1.63;;
78887;SDS011;68276;49.326;8.690;2023-07-13T05:42:02;8.48;;;1.70;;
78887;SDS011;68276;49.326;8.690;2023-07-13T05:44:28;5.22;;;1.70;;
78887;SDS011;68276;49.326;8.690;2023-07-13T05:46:53;7.27;;;1.60;;
78887;SDS011;68276;49.326;8.690;2023-07-13T05:49:21;4.35;;;1.55;;
78887;SDS011;68276;49.326;8.690;2023-07-13T05:54:12;5.67;;;1.60;;
78887;SDS011;68276;49.326;8.690;2023-07-13T05:56:39;6.30;;;1.53;;
78887;SDS011;68276;49.326;8.690;2023-07-13T05:59:04;5.60;;;1.83;;
78887;SDS011;68276;49.326;8.690;2023-07-13T06:01:30;7.43;;;1.73;;
78887;SDS011;68276;49.326;8.690;2023-07-13T06:03:56;6.47;;;1.58;;
78887;SDS011;68276;49.326;8.690;2023-07-13T06:06:21;5.97;;;1.63;;
78887;SDS011;68276;49.326;8.690;2023-07-13T06:08:47;5.93;;;1.52;;
78887;SDS011;68276;49.326;8.690;2023-07-13T06:11:17;6.95;;;1.70;;
78887;SDS011;68276;49.326;8.690;2023-07-13T06:13:44;5.90;;;1.50;;
78887;SDS011;68276;49.326;8.690;2023-07-13T06:16:10;4.68;;;1.42;;
78887;SDS011;68276;49.326;8.690;2023-07-13T06:18:40;4.63;;;1.52;;
78887;SDS011;68276;49.326;8.690;2023-07-13T06:23:32;7.53;;;1.95;;
78887;SDS011;68276;49.326;8.690;2023-07-13T06:25:57;6.37;;;1.67;;
78887;SDS011;68276;49.326;8.690;2023-07-13T06:28:24;5.97;;;2.03;;
78887;SDS011;68276;49.326;8.690;2023-07-13T06:30:49;9.90;;;1.70;;
78887;SDS011;68276;49.326;8.690;2023-07-13T06:33:14;7.00;;;1.60;;
78887;SDS011;68276;49.326;8.690;2023-07-13T06:35:40;6.03;;;1.50;;
78887;SDS011;68276;49.326;8.690;2023-07-13T06:38:05;5.75;;;1.75;;
78887;SDS011;68276;49.326;8.690;2023-07-13T06:40:31;8.50;;;1.52;;
78887;SDS011;68276;49.326;8.690;2023-07-13T06:42:56;7.13;;;1.60;;
78887;SDS011;68276;49.326;8.690;2023-07-13T06:45:23;6.18;;;1.90;;
78887;SDS011;68276;49.326;8.690;2023-07-13T06:47:48;7.85;;;1.75;;
78887;SDS011;68276;49.326;8.690;2023-07-13T06:52:39;6.93;;;1.70;;
78887;SDS011;68276;49.326;8.690;2023-07-13T06:55:05;13.73;;;1.80;;
78887;SDS011;68276;49.326;8.690;2023-07-13T06:59:56;7.90;;;1.60;;
78887;SDS011;68276;49.326;8.690;2023-07-13T07:02:22;6.25;;;1.42;;
78887;SDS011;68276;49.326;8.690;2023-07-13T07:07:13;3.30;;;1.10;;
78887;SDS011;68276;49.326;8.690;2023-07-13T07:12:04;6.88;;;2.22;;
78887;SDS011;68276;49.326;8.690;2023-07-13T07:16:55;7.30;;;1.40;;
78887;SDS011;68276;49.326;8.690;2023-07-13T07:21:46;6.43;;;1.60;;
78887;SDS011;68276;49.326;8.690;2023-07-13T07:24:11;6.53;;;1.43;;
78887;SDS011;68276;49.326;8.690;2023-07-13T07:29:02;7.27;;;1.50;;
78887;SDS011;68276;49.326;8.690;2023-07-13T07:33:52;6.63;;;1.37;;
78887;SDS011;68276;49.326;8.690;2023-07-13T07:38:43;6.87;;;1.50;;
78887;SDS011;68276;49.326;8.690;2023-07-13T07:43:34;5.30;;;1.38;;
78887;SDS011;68276;49.326;8.690;2023-07-13T07:48:25;3.10;;;1.00;;
78887;SDS011;68276;49.326;8.690;2023-07-13T07:53:16;5.03;;;1.20;;
78887;SDS011;68276;49.326;8.690;2023-07-13T07:58:07;5.23;;;1.30;;
78887;SDS011;68276;49.326;8.690;2023-07-13T08:02:58;4.50;;;1.20;;
78887;SDS011;68276;49.326;8.690;2023-07-13T08:05:23;4.00;;;0.88;;
78887;SDS011;68276;49.326;8.690;2023-07-13T08:10:14;3.80;;;1.10;;
78887;SDS011;68276;49.326;8.690;2023-07-13T08:12:40;5.35;;;1.33;;
78887;SDS011;68276;49.326;8.690;2023-07-13T08:17:34;5.28;;;1.20;;
78887;SDS011;68276;49.326;8.690;2023-07-13T08:22:25;3.40;;;1.10;;
78887;SDS011;68276;49.326;8.690;2023-07-13T08:24:50;4.17;;;0.90;;
78887;SDS011;68276;49.326;8.690;2023-07-13T08:27:21;5.78;;;1.13;;
78887;SDS011;68276;49.326;8.690;2023-07-13T08:29:48;5.70;;;1.30;;
78887;SDS011;68276;49.326;8.690;2023-07-13T08:32:14;3.72;;;1.02;;
78887;SDS011;68276;49.326;8.690;2023-07-13T08:37:05;5.90;;;1.17;;
78887;SDS011;68276;49.326;8.690;2023-07-13T08:39:32;6.85;;;1.17;;
78887;SDS011;68276;49.326;8.690;2023-07-13T08:42:01;6.75;;;1.10;;
78887;SDS011;68276;49.326;8.690;2023-07-13T08:44:39;4.70;;;1.15;;
78887;SDS011;68276;49.326;8.690;2023-07-13T08:47:30;2.88;;;0.95;;
78887;SDS011;68276;49.326;8.690;2023-07-13T08:50:00;4.90;;;1.05;;
78887;SDS011;68276;49.326;8.690;2023-07-13T08:54:58;5.78;;;1.10;;
78887;SDS011;68276;49.326;8.690;2023-07-13T08:57:31;4.75;;;1.13;;
78887;SDS011;68276;49.326;8.690;2023-07-13T08:59:58;1.70;;;0.73;;
78887;SDS011;68276;49.326;8.690;2023-07-13T09:05:04;3.85;;;0.98;;
78887;SDS011;68276;49.326;8.690;2023-07-13T09:10:39;4.15;;;0.90;;
78887;SDS011;68276;49.326;8.690;2023-07-13T09:16:02;4.07;;;1.00;;
78887;SDS011;68276;49.326;8.690;2023-07-13T09:18:30;3.70;;;0.90;;
78887;SDS011;68276;49.326;8.690;2023-07-13T09:21:32;5.03;;;1.00;;
78887;SDS011;68276;49.326;8.690;2023-07-13T09:26:49;3.00;;;0.85;;
78887;SDS011;68276;49.326;8.690;2023-07-13T09:29:19;3.13;;;0.80;;
78887;SDS011;68276;49.326;8.690;2023-07-13T09:31:54;3.97;;;0.90;;
78887;SDS011;68276;49.326;8.690;2023-07-13T09:34:23;8.85;;;1.10;;
78887;SDS011;68276;49.326;8.690;2023-07-13T09:36:50;3.78;;;1.00;;
78887;SDS011;68276;49.326;8.690;2023-07-13T09:39:21;5.20;;;1.20;;
78887;SDS011;68276;49.326;8.690;2023-07-13T09:46:56;5.30;;;1.02;;
78887;SDS011;68276;49.326;8.690;2023-07-13T09:49:26;4.65;;;0.98;;
78887;SDS011;68276;49.326;8.690;2023-07-13T09:52:09;4.38;;;1.10;;
78887;SDS011;68276;49.326;8.690;2023-07-13T09:54:36;4.88;;;1.23;;
78887;SDS011;68276;49.326;8.690;2023-07-13T09:57:02;10.20;;;1.70;;
78887;SDS011;68276;49.326;8.690;2023-07-13T09:59:34;6.82;;;1.25;;
78887;SDS011;68276;49.326;8.690;2023-07-13T10:02:22;9.43;;;1.20;;
78887;SDS011;68276;49.326;8.690;2023-07-13T10:07:39;6.05;;;1.17;;
78887;SDS011;68276;49.326;8.690;2023-07-13T10:10:19;5.03;;;1.20;;
78887;SDS011;68276;49.326;8.690;2023-07-13T10:12:47;5.68;;;1.25;;
78887;SDS011;68276;49.326;8.690;2023-07-13T10:15:15;4.70;;;1.30;;
78887;SDS011;68276;49.326;8.690;2023-07-13T10:17:43;3.25;;;1.10;;
78887;SDS011;68276;49.326;8.690;2023-07-13T10:20:10;4.20;;;1.10;;
78887;SDS011;68276;49.326;8.690;2023-07-13T10:23:12;5.65;;;1.20;;
78887;SDS011;68276;49.326;8.690;2023-07-13T10:25:39;4.50;;;0.90;;
78887;SDS011;68276;49.326;8.690;2023-07-13T10:28:17;3.35;;;1.00;;
78887;SDS011;68276;49.326;8.690;2023-07-13T10:30:56;7.95;;;1.58;;
78887;SDS011;68276;49.326;8.690;2023-07-13T10:33:25;4.35;;;1.27;;
78887;SDS011;68276;49.326;8.690;2023-07-13T10:35:54;3.72;;;1.10;;
78887;SDS011;68276;49.326;8.690;2023-07-13T10:38:27;4.50;;;1.15;;
78887;SDS011;68276;49.326;8.690;2023-07-13T10:43:37;3.65;;;1.00;;
78887;SDS011;68276;49.326;8.690;2023-07-13T10:46:10;6.10;;;1.45;;
78887;SDS011;68276;49.326;8.690;2023-07-13T10:48:40;7.65;;;1.20;;
78887;SDS011;68276;49.326;8.690;2023-07-13T10:51:08;4.45;;;1.38;;
78887;SDS011;68276;49.326;8.690;2023-07-13T10:53:37;6.55;;;1.00;;
78887;SDS011;68276;49.326;8.690;2023-07-13T10:58:39;3.33;;;0.75;;
78887;SDS011;68276;49.326;8.690;2023-07-13T11:03:50;6.37;;;1.50;;
78887;SDS011;68276;49.326;8.690;2023-07-13T11:11:47;5.40;;;1.20;;
78887;SDS011;68276;49.326;8.690;2023-07-13T11:16:54;2.25;;;0.80;;
78887;SDS011;68276;49.326;8.690;2023-07-13T11:24:47;4.43;;;1.38;;
78887;SDS011;68276;49.326;8.690;2023-07-13T11:27:52;4.63;;;0.85;;
78887;SDS011;68276;49.326;8.690;2023-07-13T11:33:09;4.88;;;0.95;;
78887;SDS011;68276;49.326;8.690;2023-07-13T11:36:00;3.08;;;1.10;;
78887;SDS011;68276;49.326;8.690;2023-07-13T11:38:32;4.82;;;1.27;;
78887;SDS011;68276;49.326;8.690;2023-07-13T11:41:05;5.40;;;1.00;;
78887;SDS011;68276;49.326;8.690;2023-07-13T11:43:40;6.43;;;1.15;;
78887;SDS011;68276;49.326;8.690;2023-07-13T11:48:57;4.10;;;0.82;;
78887;SDS011;68276;49.326;8.690;2023-07-13T11:51:23;3.67;;;0.90;;
78887;SDS011;68276;49.326;8.690;2023-07-13T11:53:53;5.45;;;1.05;;
78887;SDS011;68276;49.326;8.690;2023-07-13T11:56:20;3.47;;;0.90;;
78887;SDS011;68276;49.326;8.690;2023-07-13T11:58:53;5.53;;;1.00;;
78887;SDS011;68276;49.326;8.690;2023-07-13T12:01:22;3.10;;;0.80;;
78887;SDS011;68276;49.326;8.690;2023-07-13T12:03:50;3.25;;;1.08;;
78887;SDS011;68276;49.326;8.690;2023-07-13T12:06:30;2.85;;;0.93;;
78887;SDS011;68276;49.326;8.690;2023-07-13T12:09:02;4.43;;;1.10;;
78887;SDS011;68276;49.326;8.690;2023-07-13T12:11:29;4.38;;;1.10;;
78887;SDS011;68276;49.326;8.690;2023-07-13T12:13:55;4.35;;;1.00;;
78887;SDS011;68276;49.326;8.690;2023-07-13T12:18:52;3.58;;;1.00;;
78887;SDS011;68276;49.326;8.690;2023-07-13T12:21:19;3.17;;;1.00;;
78887;SDS011;68276;49.326;8.690;2023-07-13T12:23:49;4.68;;;1.17;;
78887;SDS011;68276;49.326;8.690;2023-07-13T12:26:16;4.82;;;1.00;;
78887;SDS011;68276;49.326;8.690;2023-07-13T12:28:46;3.53;;;0.88;;
78887;SDS011;68276;49.326;8.690;2023-07-13T12:33:56;4.82;;;1.10;;
78887;SDS011;68276;49.326;8.690;2023-07-13T12:36:23;4.32;;;1.15;;
78887;SDS011;68276;49.326;8.690;2023-07-13T12:38:48;3.17;;;0.98;;
78887;SDS011;68276;49.326;8.690;2023-07-13T12:41:14;3.97;;;0.90;;
78887;SDS011;68276;49.326;8.690;2023-07-13T12:43:40;4.00;;;1.00;;
78887;SDS011;68276;49.326;8.690;2023-07-13T12:48:48;2.30;;;0.90;;
78887;SDS011;68276;49.326;8.690;2023-07-13T12:51:15;5.03;;;1.23;;
78887;SDS011;68276;49.326;8.690;2023-07-13T12:53:42;4.18;;;0.90;;
78887;SDS011;68276;49.326;8.690;2023-07-13T12:56:16;3.70;;;1.10;;
78887;SDS011;68276;49.326;8.690;2023-07-13T12:58:46;2.97;;;0.70;;
78887;SDS011;68276;49.326;8.690;2023-07-13T13:01:15;5.20;;;0.90;;
78887;SDS011;68276;49.326;8.690;2023-07-13T13:03:46;5.28;;;1.20;;
78887;SDS011;68276;49.326;8.690;2023-07-13T13:08:43;5.55;;;0.95;;
78887;SDS011;68276;49.326;8.690;2023-07-13T13:11:10;3.30;;;0.82;;
78887;SDS011;68276;49.326;8.690;2023-07-13T13:13:35;2.80;;;0.90;;
78887;SDS011;68276;49.326;8.690;2023-07-13T13:16:09;3.38;;;0.90;;
78887;SDS011;68276;49.326;8.690;2023-07-13T13:18:34;3.25;;;0.85;;
78887;SDS011;68276;49.326;8.690;2023-07-13T13:21:01;3.22;;;0.80;;
78887;SDS011;68276;49.326;8.690;2023-07-13T13:23:26;4.47;;;1.20;;
78887;SDS011;68276;49.326;8.690;2023-07-13T13:25:52;4.88;;;1.08;;
78887;SDS011;68276;49.326;8.690;2023-07-13T13:28:18;3.47;;;0.85;;
78887;SDS011;68276;49.326;8.690;2023-07-13T13:30:46;2.75;;;0.90;;
78887;SDS011;68276;49.326;8.690;2023-07-13T13:33:14;3.58;;;0.95;;
78887;SDS011;68276;49.326;8.690;2023-07-13T13:35:41;5.82;;;1.30;;
78887;SDS011;68276;49.326;8.690;2023-07-13T13:38:12;5.47;;;1.30;;
78887;SDS011;68276;49.326;8.690;2023-07-13T13:40:39;4.85;;;1.10;;
78887;SDS011;68276;49.326;8.690;2023-07-13T13:43:23;4.68;;;1.55;;
78887;SDS011;68276;49.326;8.690;2023-07-13T13:45:55;3.00;;;0.80;;
78887;SDS011;68276;49.326;8.690;2023-07-13T13:48:30;3.30;;;1.00;;
78887;SDS011;68276;49.326;8.690;2023-07-13T13:50:58;2.50;;;0.90;;
78887;SDS011;68276;49.326;8.690;2023-07-13T13:53:25;2.65;;;1.13;;
78887;SDS011;68276;49.326;8.690;2023-07-13T13:55:50;2.67;;;0.90;;
78887;SDS011;68276;49.326;8.690;2023-07-13T13:58:17;3.63;;;0.90;;
78887;SDS011;68276;49.326;8.690;2023-07-13T14:00:42;3.53;;;1.13;;
78887;SDS011;68276;49.326;8.690;2023-07-13T14:03:17;4.30;;;1.00;;
78887;SDS011;68276;49.326;8.690;2023-07-13T14:05:44;4.80;;;1.30;;
78887;SDS011;68276;49.326;8.690;2023-07-13T14:08:19;4.57;;;1.10;;
78887;SDS011;68276;49.326;8.690;2023-07-13T14:10:46;4.63;;;1.15;;
78887;SDS011;68276;49.326;8.690;2023-07-13T14:13:26;3.28;;;0.95;;
78887;SDS011;68276;49.326;8.690;2023-07-13T14:16:08;3.45;;;1.00;;
78887;SDS011;68276;49.326;8.690;2023-07-13T14:18:36;8.25;;;1.10;;
78887;SDS011;68276;49.326;8.690;2023-07-13T14:21:01;4.23;;;1.00;;
78887;SDS011;68276;49.326;8.690;2023-07-13T14:23:26;2.97;;;1.13;;
78887;SDS011;68276;49.326;8.690;2023-07-13T14:25:52;5.03;;;1.07;;
78887;SDS011;68276;49.326;8.690;2023-07-13T14:28:19;3.90;;;1.13;;
78887;SDS011;68276;49.326;8.690;2023-07-13T14:30:47;5.75;;;1.00;;
78887;SDS011;68276;49.326;8.690;2023-07-13T14:33:14;5.80;;;1.10;;
78887;SDS011;68276;49.326;8.690;2023-07-13T14:35:40;2.42;;;0.90;;
78887;SDS011;68276;49.326;8.690;2023-07-13T14:38:08;3.88;;;1.02;;
78887;SDS011;68276;49.326;8.690;2023-07-13T14:40:36;4.38;;;1.10;;
78887;SDS011;68276;49.326;8.690;2023-07-13T14:43:02;4.05;;;0.93;;
78887;SDS011;68276;49.326;8.690;2023-07-13T14:45:28;4.20;;;1.08;;
78887;SDS011;68276;49.326;8.690;2023-07-13T14:47:56;8.07;;;1.20;;
78887;SDS011;68276;49.326;8.690;2023-07-13T14:50:31;4.57;;;1.15;;
78887;SDS011;68276;49.326;8.690;2023-07-13T14:52:57;3.72;;;1.10;;
78887;SDS011;68276;49.326;8.690;2023-07-13T14:55:23;6.37;;;1.20;;
78887;SDS011;68276;49.326;8.690;2023-07-13T14:57:51;3.97;;;1.10;;
78887;SDS011;68276;49.326;8.690;2023-07-13T15:00:20;4.85;;;1.40;;
78887;SDS011;68276;49.326;8.690;2023-07-13T15:02:48;6.28;;;1.10;;
78887;SDS011;68276;49.326;8.690;2023-07-13T15:05:17;7.43;;;1.27;;
78887;SDS011;68276;49.326;8.690;2023-07-13T15:07:53;6.60;;;1.50;;
78887;SDS011;68276;49.326;8.690;2023-07-13T15:10:21;8.50;;;1.42;;
78887;SDS011;68276;49.326;8.690;2023-07-13T15:12:50;5.22;;;1.40;;
78887;SDS011;68276;49.326;8.690;2023-07-13T15:15:16;4.05;;;1.10;;
78887;SDS011;68276;49.326;8.690;2023-07-13T15:17:42;4.45;;;0.90;;
78887;SDS011;68276;49.326;8.690;2023-07-13T15:20:21;4.47;;;1.10;;
78887;SDS011;68276;49.326;8.690;2023-07-13T15:22:52;4.25;;;1.00;;
78887;SDS011;68276;49.326;8.690;2023-07-13T15:25:18;5.07;;;1.08;;
78887;SDS011;68276;49.326;8.690;2023-07-13T15:27:49;4.88;;;1.20;;
78887;SDS011;68276;49.326;8.690;2023-07-13T15:30:15;3.55;;;1.10;;
78887;SDS011;68276;49.326;8.690;2023-07-13T15:32:44;3.33;;;1.10;;
78887;SDS011;68276;49.326;8.690;2023-07-13T15:35:20;3.70;;;1.17;;
78887;SDS011;68276;49.326;8.690;2023-07-13T15:37:49;2.63;;;1.00;;
78887;SDS011;68276;49.326;8.690;2023-07-13T15:40:15;5.07;;;1.13;;
78887;SDS011;68276;49.326;8.690;2023-07-13T15:42:41;5.47;;;1.10;;
78887;SDS011;68276;49.326;8.690;2023-07-13T15:45:14;5.03;;;1.20;;
78887;SDS011;68276;49.326;8.690;2023-07-13T15:47:45;3.67;;;1.10;;
78887;SDS011;68276;49.326;8.690;2023-07-13T15:50:18;4.40;;;1.10;;
78887;SDS011;68276;49.326;8.690;2023-07-13T15:52:47;4.63;;;1.23;;
78887;SDS011;68276;49.326;8.690;2023-07-13T15:55:14;2.88;;;0.90;;
78887;SDS011;68276;49.326;8.690;2023-07-13T15:57:44;5.10;;;1.15;;
78887;SDS011;68276;49.326;8.690;2023-07-13T16:02:47;5.28;;;1.20;;
78887;SDS011;68276;49.326;8.690;2023-07-13T16:05:13;4.18;;;1.10;;
78887;SDS011;68276;49.326;8.690;2023-07-13T16:07:41;5.20;;;1.20;;
78887;SDS011;68276;49.326;8.690;2023-07-13T16:10:09;3.58;;;1.20;;
78887;SDS011;68276;49.326;8.690;2023-07-13T16:12:39;6.53;;;1.20;;
78887;SDS011;68276;49.326;8.690;2023-07-13T16:15:05;4.73;;;1.20;;
78887;SDS011;68276;49.326;8.690;2023-07-13T16:17:38;4.20;;;1.02;;
78887;SDS011;68276;49.326;8.690;2023-07-13T16:20:06;5.45;;;1.27;;
78887;SDS011;68276;49.326;8.690;2023-07-13T16:22:35;5.90;;;1.23;;
78887;SDS011;68276;49.326;8.690;2023-07-13T16:25:02;5.78;;;1.33;;
78887;SDS011;68276;49.326;8.690;2023-07-13T16:27:37;4.90;;;1.30;;
78887;SDS011;68276;49.326;8.690;2023-07-13T16:30:09;3.93;;;1.00;;
78887;SDS011;68276;49.326;8.690;2023-07-13T16:32:37;5.88;;;1.15;;
78887;SDS011;68276;49.326;8.690;2023-07-13T16:35:03;2.92;;;0.95;;
78887;SDS011;68276;49.326;8.690;2023-07-13T16:37:30;4.40;;;1.23;;
78887;SDS011;68276;49.326;8.690;2023-07-13T16:39:56;4.07;;;1.13;;
78887;SDS011;68276;49.326;8.690;2023-07-13T16:42:25;5.40;;;1.30;;
78887;SDS011;68276;49.326;8.690;2023-07-13T16:44:51;3.50;;;1.40;;
78887;SDS011;68276;49.326;8.690;2023-07-13T16:47:18;6.07;;;1.35;;
78887;SDS011;68276;49.326;8.690;2023-07-13T16:49:46;4.05;;;1.52;;
78887;SDS011;68276;49.326;8.690;2023-07-13T16:52:13;7.28;;;1.13;;
78887;SDS011;68276;49.326;8.690;2023-07-13T16:54:40;3.60;;;1.10;;
78887;SDS011;68276;49.326;8.690;2023-07-13T16:57:12;3.38;;;1.30;;
78887;SDS011;68276;49.326;8.690;2023-07-13T16:59:40;7.50;;;1.50;;
78887;SDS011;68276;49.326;8.690;2023-07-13T17:02:25;8.32;;;1.25;;
78887;SDS011;68276;49.326;8.690;2023-07-13T17:04:56;3.65;;;0.98;;
78887;SDS011;68276;49.326;8.690;2023-07-13T17:07:22;3.45;;;1.10;;
78887;SDS011;68276;49.326;8.690;2023-07-13T17:09:48;3.42;;;1.10;;
78887;SDS011;68276;49.326;8.690;2023-07-13T17:12:14;5.97;;;1.30;;
78887;SDS011;68276;49.326;8.690;2023-07-13T17:14:40;3.75;;;1.10;;
78887;SDS011;68276;49.326;8.690;2023-07-13T17:17:13;2.70;;;0.95;;